createdAt,value
2017-02-20T00:06:18.475Z,0
2017-02-20T00:26:33.431Z,0
2017-02-20T00:36:13.984Z,0
2017-02-20T00:46:26.588Z,0
2017-02-20T01:06:46.397Z,0
2017-02-20T01:16:13.941Z,0
2017-02-20T01:26:27.676Z,0
2017-02-20T01:36:21.473Z,0
2017-02-20T01:46:32.487Z,0
2017-02-20T01:56:32.546Z,0
2017-02-20T02:06:28.188Z,0
2017-02-20T02:16:39.613Z,0
2017-02-20T02:26:37.743Z,0
2017-02-20T02:36:31.997Z,0
2017-02-20T02:46:27.612Z,0
2017-02-20T03:06:25.791Z,0
2017-02-20T03:16:14.149Z,0
2017-02-20T03:36:39.341Z,0
2017-02-20T03:46:53.773Z,0
2017-02-20T03:56:33.191Z,0
2017-02-20T04:26:53.196Z,0
2017-02-20T04:36:20.268Z,0
2017-02-20T04:46:14.351Z,0
2017-02-20T04:56:36.424Z,0
2017-02-20T05:06:55.083Z,0
2017-02-20T05:26:37.973Z,0
2017-02-20T06:06:26.929Z,0
2017-02-20T06:16:38.674Z,0
2017-02-20T06:26:14.278Z,0
2017-02-20T06:56:14.231Z,5
2017-02-20T07:06:40.528Z,15
2017-02-20T07:26:14.332Z,25
2017-02-20T07:36:14.333Z,35
2017-02-20T07:46:15.393Z,30
2017-02-20T07:56:26.729Z,40
2017-02-20T08:06:49.970Z,55
2017-02-20T08:16:31.242Z,50
2017-02-20T08:36:32.800Z,45
2017-02-20T08:56:14.357Z,50
2017-02-20T09:16:14.950Z,50
2017-02-20T10:26:43.818Z,80
2017-02-20T10:46:20.384Z,85
2017-02-20T10:56:25.835Z,65
2017-02-20T11:06:14.490Z,110
2017-02-20T11:16:14.482Z,95
2017-02-20T11:26:14.524Z,100
2017-02-20T11:36:14.473Z,80
2017-02-20T11:46:14.508Z,85
2017-02-20T11:56:14.489Z,120
2017-02-20T12:06:14.686Z,125
2017-02-20T12:16:14.465Z,145
2017-02-20T12:26:14.499Z,155
2017-02-20T12:36:14.536Z,85
2017-02-20T12:46:14.621Z,100
2017-02-20T12:56:14.662Z,115
2017-02-20T13:06:14.634Z,115
2017-02-20T13:16:14.646Z,95
2017-02-20T13:26:14.638Z,80
2017-02-20T13:36:14.596Z,100
2017-02-20T13:46:14.662Z,90
2017-02-20T13:56:14.660Z,65
2017-02-20T14:06:14.719Z,70
2017-02-20T14:16:15.109Z,65
2017-02-20T14:26:14.693Z,60
2017-02-20T14:36:14.605Z,55
2017-02-20T14:46:14.736Z,50
2017-02-20T14:56:14.743Z,40
2017-02-20T15:06:14.707Z,40
2017-02-20T15:16:14.694Z,35
2017-02-20T15:26:14.743Z,30
2017-02-20T15:36:14.707Z,40
2017-02-20T15:46:14.813Z,25
2017-02-20T15:56:14.782Z,15
2017-02-20T16:06:14.744Z,10
2017-02-20T16:16:14.794Z,5
2017-02-20T16:26:14.799Z,5
2017-02-20T16:36:14.777Z,0
2017-02-20T16:46:14.839Z,0
2017-02-20T16:56:14.807Z,0
2017-02-20T17:06:14.760Z,0
2017-02-20T17:16:14.817Z,0
2017-02-20T17:26:14.916Z,0
2017-02-20T17:36:14.839Z,0
2017-02-20T17:46:14.861Z,0
2017-02-20T17:56:14.867Z,0
2017-02-20T18:06:14.826Z,0
2017-02-20T18:16:14.815Z,0
2017-02-20T18:26:14.788Z,0
2017-02-20T18:36:14.828Z,0
2017-02-20T18:46:14.811Z,0
2017-02-20T18:56:14.798Z,0
2017-02-20T19:06:14.864Z,0
2017-02-20T19:16:14.853Z,0
2017-02-20T19:26:14.842Z,0
2017-02-20T19:36:15.211Z,0
2017-02-20T19:46:14.865Z,0
2017-02-20T19:56:14.868Z,0
2017-02-20T20:06:14.989Z,0
2017-02-20T20:16:14.976Z,0
2017-02-20T20:26:14.918Z,0
2017-02-20T20:36:14.970Z,0
2017-02-20T20:46:14.912Z,0
2017-02-20T20:56:14.935Z,0
2017-02-20T21:06:14.930Z,0
2017-02-20T21:16:14.978Z,0
2017-02-20T21:26:14.975Z,0
2017-02-20T21:36:14.949Z,0
2017-02-20T21:46:14.987Z,0
2017-02-20T21:56:15.345Z,0
2017-02-20T22:06:15.052Z,0
2017-02-20T22:16:15.127Z,0
2017-02-20T22:26:15.073Z,0
2017-02-20T22:36:15.174Z,0
2017-02-20T22:46:19.443Z,0
2017-02-20T22:56:15.142Z,0
2017-02-20T23:06:15.276Z,0
2017-02-20T23:16:15.163Z,0
2017-02-20T23:26:15.110Z,0
2017-02-20T23:36:15.168Z,0
2017-02-20T23:46:15.163Z,0
2017-02-20T23:56:15.203Z,0
